Terminal Aerodrome Forecast
Issued by NWS

Current Version | Previous Version | Text Only | Print | Product List | Glossary On
Versions: 1 2 3 4 5 6 7 8 9 10 11 12 13
000
FTUS46 KSEW 291700
TAFOLM
TAF
KOLM 291739Z 2918/3018 00000KT P6SM SKC
     FM291900 02007KT P6SM SKC
     FM300200 VRB02KT P6SM SKC
     FM301200 VRB02KT 6SM BR BKN008
     FM301700 VRB03KT P6SM SCT012=

USA.gov is the U.S. government's official web portal to all federal, state and local government web resources and services.